Saltillo, PA (17253)

3:10 AM EDT on July 31, 2016 (GMT -0400)
Three Springs, PA | | Change Station

Elev 807 ft 40.21 °N, 77.96 °W | Updated 12 seconds ago

Overcast
Overcast
70.5 °F
Feels Like 70.5 °F
N
0.0
Wind Variable Wind from WSW
Gusts 0.0 mph

Today
High -- | Low -- °F
--% Chance of Precip.
Yesterday
High -- | Low -- °F
Precip. -- in
Pressure 29.99 in
Visibility 1.0 miles
Clouds Scattered Clouds 500 ft
Overcast 1200 ft
Dew Point 70 °F
Humidity 98%
Rainfall 0.00 in
Snow Depth Not available.
6:09 AM 8:26 PM
Waning Crescent, 8% visible
SPECI KAOO 310702Z AUTO 00000KT 1SM BR SCT005 OVC012 21/21 A2999 RMK AO2 T02060206
Pressure 29.99 in
Visibility 1.0 miles
Clouds Scattered Clouds 500 ft
Overcast 1200 ft
Dew Point 70 °F
Humidity 98%
Rainfall 0.00 in
Snow Depth Not available.
6:09 AM 8:26 PM
Waning Crescent, 8% visible
SPECI KAOO 310702Z AUTO 00000KT 1SM BR SCT005 OVC012 21/21 A2999 RMK AO2 T02060206

10-Day Weather Forecast

Almanac

Astronomy

Jul. 31, 2016 Rise Set
Actual Time
Civil Twilight
Nautical Twilight
Astronomical Twilight
Moon
Length of Visible Light
Length of Day
Tomorrow will be .
, % of the Moon is Illuminated

Today's Extremes

State Highs State Lows

Community

WunderPhotos

Upload Photos

1,928,768 photos uploaded!

WunderBlog® & News

Nearby

Air Quality

  Air Quality AQ Index Pollutant
Not available.

Snow Depth

Station Depth Elevation

Earthquake Activity

City Distance Mag. Time & Date
Minimum magnitude displayed is 2.5.

Coastal Water Temperatures

Place Temperature

Stations

Nearby Weather Stations

Station Location Temp. Windchill Dew Point Humidity Wind Precip. Elev Updated Type
                   

Watches & Warnings

There are currently no watches in effect.